Time;durP1;ratioP1;P1;durP2;ratioP2;P2;SDS_P1;SDS_P2;PMS_P1;PMS_P2;Temp;Humidity;BMP_temperature;BMP_pressure;BME280_temperature;BME280_humidity;BME280_pressure;Samples;Min_cycle;Max_cycle;Signal;HPM_P1;HPM_P2
2023/08/18 00:00:28;0.00;0.00;0.62;0.00;0.00;0.62;1.63;1.33;;;30.40;31.60;;;;;;2220533;62;20455;-52
2023/08/18 00:03:14;0.00;0.00;0.62;0.00;0.00;0.62;2.77;1.70;;;30.50;31.70;;;;;;2219952;62;20419;-53
2023/08/18 00:05:59;0.00;0.00;0.62;0.00;0.00;0.62;2.10;1.43;;;30.40;31.60;;;;;;2220443;62;20422;-56
2023/08/18 00:08:44;0.00;0.00;0.62;0.00;0.00;0.62;1.80;1.40;;;30.50;31.70;;;;;;2220693;62;20423;-56
2023/08/18 00:11:28;0.00;0.00;0.62;0.00;0.00;0.62;2.03;1.40;;;30.40;31.60;;;;;;2219844;62;20940;-58
2023/08/18 00:14:13;0.00;0.00;0.62;0.00;0.00;0.62;2.00;1.53;;;30.40;31.70;;;;;;2220220;62;20434;-56
2023/08/18 00:16:58;0.00;0.00;0.62;0.00;0.00;0.62;1.70;1.43;;;30.40;31.60;;;;;;2220774;62;20392;-57
2023/08/18 00:19:44;0.00;0.00;0.62;0.00;0.00;0.62;1.80;1.37;;;30.40;31.70;;;;;;2219816;62;20374;-57
2023/08/18 00:22:30;0.00;0.00;0.62;0.00;0.00;0.62;1.67;1.20;;;30.40;31.60;;;;;;2220074;62;20680;-60
2023/08/18 00:25:14;0.00;0.00;0.62;0.00;0.00;0.62;2.10;1.60;;;30.40;31.60;;;;;;2220070;62;20422;-61
2023/08/18 00:27:59;0.00;0.00;0.62;0.00;0.00;0.62;1.90;1.63;;;30.40;31.60;;;;;;2220563;62;20373;-60
2023/08/18 00:30:44;0.00;0.00;0.62;0.00;0.00;0.62;2.13;1.50;;;30.40;31.70;;;;;;2220283;62;20426;-61
2023/08/18 00:33:28;0.00;0.00;0.62;0.00;0.00;0.62;1.80;1.50;;;30.40;31.70;;;;;;2219764;62;20370;-59
2023/08/18 00:36:14;0.00;0.00;0.62;0.00;0.00;0.62;1.70;1.40;;;30.40;31.70;;;;;;2220896;62;20898;-58
2023/08/18 00:38:59;0.00;0.00;0.62;0.00;0.00;0.62;1.77;1.13;;;30.40;31.70;;;;;;2220321;62;20406;-60
2023/08/18 00:41:45;0.00;0.00;0.62;0.00;0.00;0.62;2.00;1.57;;;30.40;31.60;;;;;;2219771;62;20464;-58
2023/08/18 00:44:30;0.00;0.00;0.62;0.00;0.00;0.62;1.90;1.47;;;30.40;31.70;;;;;;2220366;62;20458;-58
2023/08/18 00:47:14;0.00;0.00;0.62;0.00;0.00;0.62;2.80;1.43;;;30.40;31.70;;;;;;2220573;62;20373;-60
2023/08/18 00:50:00;0.00;0.00;0.62;0.00;0.00;0.62;1.70;1.33;;;30.40;31.70;;;;;;2219539;62;20389;-60
2023/08/18 00:52:55;0.00;0.00;0.62;0.00;0.00;0.62;1.87;1.50;;;30.40;31.70;;;;;;2220606;62;20405;-60
2023/08/18 00:55:40;0.00;0.00;0.62;0.00;0.00;0.62;2.10;1.37;;;30.40;31.70;;;;;;2219673;62;20858;-61
2023/08/18 00:58:25;0.00;0.00;0.62;0.00;0.00;0.62;1.63;1.20;;;30.40;31.70;;;;;;2220553;62;20414;-61
2023/08/18 01:01:09;0.00;0.00;0.62;0.00;0.00;0.62;2.10;1.43;;;30.40;31.70;;;;;;2220151;62;20401;-61
2023/08/18 01:03:55;0.00;0.00;0.62;0.00;0.00;0.62;1.83;1.33;;;30.40;31.70;;;;;;2219625;62;20389;-58
2023/08/18 01:06:40;0.00;0.00;0.62;0.00;0.00;0.62;1.67;1.43;;;30.40;31.70;;;;;;2220243;62;20402;-57
2023/08/18 01:09:28;0.00;0.00;0.62;0.00;0.00;0.62;4.03;1.50;;;30.40;31.70;;;;;;2219927;62;20382;-61
2023/08/18 01:12:25;0.00;0.00;0.62;0.00;0.00;0.62;1.50;1.30;;;30.40;31.70;;;;;;2219888;62;20438;-59
2023/08/18 01:15:16;0.00;0.00;0.62;0.00;0.00;0.62;2.13;1.77;;;30.40;31.70;;;;;;2220093;62;20438;-63
2023/08/18 01:18:03;0.00;0.00;0.62;0.00;0.00;0.62;1.80;1.33;;;30.40;31.70;;;;;;2212162;62;20398;-58
2023/08/18 01:20:50;0.00;0.00;0.62;0.00;0.00;0.62;1.60;1.40;;;30.40;31.70;;;;;;2216168;62;20387;-57
2023/08/18 01:23:40;0.00;0.00;0.62;0.00;0.00;0.62;1.83;1.50;;;30.40;31.70;;;;;;2215806;62;20458;-59
2023/08/18 01:26:25;0.00;0.00;0.62;0.00;0.00;0.62;1.70;1.40;;;30.40;31.70;;;;;;2215757;62;20428;-65
2023/08/18 01:29:09;0.00;0.00;0.62;0.00;0.00;0.62;1.60;1.33;;;30.40;31.70;;;;;;2216630;62;20371;-59
2023/08/18 01:32:00;0.00;0.00;0.62;0.00;0.00;0.62;1.80;1.20;;;30.40;31.80;;;;;;2216550;62;20516;-60
2023/08/18 01:34:46;0.00;0.00;0.62;0.00;0.00;0.62;2.27;1.50;;;30.40;31.80;;;;;;2215796;62;20429;-60
2023/08/18 01:37:31;0.00;0.00;0.62;0.00;0.00;0.62;1.90;1.60;;;30.40;31.80;;;;;;2216562;62;20372;-59
2023/08/18 01:40:21;0.00;0.00;0.62;0.00;0.00;0.62;2.10;1.70;;;30.40;31.80;;;;;;2216010;62;20388;-60
2023/08/18 01:43:05;0.00;0.00;0.62;0.00;0.00;0.62;1.87;1.47;;;30.40;31.80;;;;;;2221053;62;20467;-60
2023/08/18 01:46:46;0.00;0.00;0.62;0.00;0.00;0.62;3.33;1.67;;;30.40;31.80;;;;;;2215937;62;20742;-59
2023/08/18 01:49:31;0.00;0.00;0.62;0.00;0.00;0.62;3.00;1.53;;;30.40;31.70;;;;;;2218014;62;20899;-61
2023/08/18 01:52:15;0.00;0.00;0.62;0.00;0.00;0.62;2.13;1.93;;;30.40;31.80;;;;;;2220550;62;21052;-61
2023/08/18 01:55:00;0.00;0.00;0.62;0.00;0.00;0.62;2.00;1.67;;;30.40;31.80;;;;;;2219333;62;20954;-61
2023/08/18 01:57:46;0.00;0.00;0.62;0.00;0.00;0.62;2.43;1.60;;;30.40;31.80;;;;;;2220293;62;20923;-61
2023/08/18 02:00:30;0.00;0.00;0.62;0.00;0.00;0.62;2.90;1.70;;;30.40;31.80;;;;;;2220204;62;20440;-60
2023/08/18 02:03:15;0.00;0.00;0.62;0.00;0.00;0.62;2.70;1.77;;;30.40;31.80;;;;;;2219446;62;20470;-59
2023/08/18 02:06:00;0.00;0.00;0.62;0.00;0.00;0.62;1.83;1.63;;;30.40;31.80;;;;;;2220048;62;20374;-61
2023/08/18 02:08:45;0.00;0.00;0.62;0.00;0.00;0.62;2.50;2.13;;;30.40;31.80;;;;;;2220517;62;20441;-60
2023/08/18 02:11:30;0.00;0.00;0.62;0.00;0.00;0.62;2.47;1.97;;;30.40;31.80;;;;;;2219745;62;20366;-61
2023/08/18 02:14:16;0.00;0.00;0.62;0.00;0.00;0.62;2.30;2.10;;;30.40;31.80;;;;;;2219709;62;20426;-61
2023/08/18 02:17:01;0.00;0.00;0.62;0.00;0.00;0.62;2.10;1.80;;;30.40;31.80;;;;;;2219000;62;20382;-60
2023/08/18 02:19:46;0.00;0.00;0.62;0.00;0.00;0.62;2.37;2.00;;;30.40;31.80;;;;;;2220618;62;20374;-62
2023/08/18 02:22:32;0.00;0.00;0.62;0.00;0.00;0.62;2.77;1.90;;;30.40;31.80;;;;;;2221103;62;20405;-59
2023/08/18 02:25:17;0.00;0.00;0.62;0.00;0.00;0.62;2.10;1.90;;;30.40;31.80;;;;;;2219478;62;20806;-61
2023/08/18 02:28:02;0.00;0.00;0.62;0.00;0.00;0.62;2.57;1.90;;;30.40;31.80;;;;;;2221118;62;20373;-57
2023/08/18 02:30:58;0.00;0.00;0.62;0.00;0.00;0.62;2.57;2.10;;;30.40;31.90;;;;;;2220634;62;20401;-58
2023/08/18 02:33:43;0.00;0.00;0.62;0.00;0.00;0.62;3.27;2.03;;;30.40;31.90;;;;;;2220227;62;20462;-63
2023/08/18 02:36:27;0.00;0.00;0.62;0.00;0.00;0.62;2.63;2.40;;;30.40;31.90;;;;;;2221113;62;20415;-59
2023/08/18 02:39:12;0.00;0.00;0.62;0.00;0.00;0.62;2.80;2.20;;;30.40;31.90;;;;;;2219663;62;20362;-59
2023/08/18 02:41:56;0.00;0.00;0.62;0.00;0.00;0.62;3.27;2.37;;;30.40;31.90;;;;;;2217834;62;20942;-58
2023/08/18 02:44:41;0.00;0.00;0.62;0.00;0.00;0.62;2.80;2.30;;;30.40;31.90;;;;;;2220754;62;20447;-60
2023/08/18 02:47:26;0.00;0.00;0.62;0.00;0.00;0.62;2.40;2.13;;;30.40;31.90;;;;;;2219815;62;20374;-63
2023/08/18 02:50:11;0.00;0.00;0.62;0.00;0.00;0.62;3.07;2.20;;;30.40;31.90;;;;;;2220642;62;20779;-60
2023/08/18 02:53:00;0.00;0.00;0.62;0.00;0.00;0.62;3.23;2.43;;;30.40;31.90;;;;;;2221236;62;20422;-63
2023/08/18 02:55:45;0.00;0.00;0.62;0.00;0.00;0.62;3.10;2.30;;;30.40;31.90;;;;;;2219600;62;20374;-60
2023/08/18 02:58:31;0.00;0.00;0.62;0.00;0.00;0.62;2.40;2.20;;;30.40;31.90;;;;;;2221002;62;20399;-61
2023/08/18 03:01:17;0.00;0.00;0.62;0.00;0.00;0.62;2.63;2.40;;;30.40;31.90;;;;;;2219498;62;20405;-61
2023/08/18 03:04:03;0.00;0.00;0.62;0.00;0.00;0.62;2.93;2.10;;;30.30;31.80;;;;;;2220833;62;20530;-60
2023/08/18 03:06:47;0.00;0.00;0.62;0.00;0.00;0.62;2.77;2.47;;;30.30;31.80;;;;;;2220702;62;20457;-59
2023/08/18 03:09:32;0.00;0.00;0.62;0.00;0.00;0.62;3.20;2.50;;;30.30;31.90;;;;;;2219858;62;20421;-59
2023/08/18 03:12:17;0.00;0.00;0.62;0.00;0.00;0.62;3.03;2.73;;;30.30;31.90;;;;;;2220614;62;20394;-61
2023/08/18 03:15:01;0.00;0.00;0.62;0.00;0.00;0.62;2.97;2.67;;;30.40;31.90;;;;;;2220247;62;20389;-59
2023/08/18 03:17:46;0.00;0.00;0.62;0.00;0.00;0.62;2.47;2.27;;;30.40;31.90;;;;;;2219506;62;20414;-60
2023/08/18 03:20:32;0.00;0.00;0.62;0.00;0.00;0.62;2.73;2.40;;;30.30;31.90;;;;;;2220850;62;20373;-60
2023/08/18 03:23:18;0.00;0.00;0.62;0.00;0.00;0.62;2.83;2.53;;;30.40;31.90;;;;;;2219235;62;20369;-59
2023/08/18 03:26:05;0.00;0.00;0.62;0.00;0.00;0.62;2.80;2.50;;;30.30;31.90;;;;;;2217974;62;20374;-60
2023/08/18 03:28:52;0.00;0.00;0.62;0.00;0.00;0.62;3.13;2.37;;;30.30;31.90;;;;;;2220191;62;20857;-59
2023/08/18 03:31:38;0.00;0.00;0.62;0.00;0.00;0.62;2.70;2.50;;;30.30;31.90;;;;;;2219520;62;20366;-61
2023/08/18 03:34:22;0.00;0.00;0.62;0.00;0.00;0.62;2.93;2.63;;;30.30;31.90;;;;;;2220670;62;20413;-61
2023/08/18 03:37:10;0.00;0.00;0.62;0.00;0.00;0.62;3.33;2.33;;;30.30;31.90;;;;;;2220687;62;20428;-61
2023/08/18 03:39:55;0.00;0.00;0.62;0.00;0.00;0.62;4.03;2.83;;;30.40;32.00;;;;;;2219684;62;20378;-60
2023/08/18 03:42:39;0.00;0.00;0.62;0.00;0.00;0.62;3.10;2.67;;;30.30;31.90;;;;;;2220622;62;20397;-60
2023/08/18 03:45:24;0.00;0.00;0.62;0.00;0.00;0.62;3.10;2.80;;;30.30;31.90;;;;;;2219585;62;20394;-59
2023/08/18 03:48:08;0.00;0.00;0.62;0.00;0.00;0.62;3.17;2.87;;;30.30;31.90;;;;;;2219678;62;20385;-60
2023/08/18 03:50:53;0.00;0.00;0.62;0.00;0.00;0.62;2.77;2.40;;;30.30;31.90;;;;;;2220245;62;20374;-58
2023/08/18 03:53:39;0.00;0.00;0.62;0.00;0.00;0.62;2.57;2.10;;;30.30;31.90;;;;;;2219311;62;20442;-60
2023/08/18 03:56:23;0.00;0.00;0.62;0.00;0.00;0.62;2.57;2.37;;;30.30;31.90;;;;;;2219122;62;20378;-60
2023/08/18 03:59:08;0.00;0.00;0.62;0.00;0.00;0.62;2.90;2.40;;;30.30;31.90;;;;;;2220471;62;20439;-57
2023/08/18 04:01:52;0.00;0.00;0.62;0.00;0.00;0.62;3.13;2.77;;;30.30;31.90;;;;;;2219984;62;20401;-57
2023/08/18 04:04:37;0.00;0.00;0.62;0.00;0.00;0.62;3.00;2.30;;;30.30;31.90;;;;;;2220381;62;20802;-55
2023/08/18 04:07:21;0.00;0.00;0.62;0.00;0.00;0.62;4.37;2.73;;;30.30;31.90;;;;;;2220573;62;20458;-61
2023/08/18 04:10:08;0.00;0.00;0.62;0.00;0.00;0.62;3.03;2.60;;;30.30;32.60;;;;;;2220791;62;20417;-57
2023/08/18 04:12:53;0.00;0.00;0.62;0.00;0.00;0.62;3.00;2.70;;;30.30;31.90;;;;;;2220667;62;20382;-56
2023/08/18 04:15:38;0.00;0.00;0.62;0.00;0.00;0.62;3.20;2.90;;;30.30;31.90;;;;;;2219587;62;20436;-56
2023/08/18 04:18:22;0.00;0.00;0.62;0.00;0.00;0.62;3.60;2.53;;;30.30;31.90;;;;;;2220627;62;20794;-58
2023/08/18 04:21:08;0.00;0.00;0.62;0.00;0.00;0.62;2.90;2.60;;;30.30;31.90;;;;;;2220677;62;20867;-57
2023/08/18 04:23:53;0.00;0.00;0.62;0.00;0.00;0.62;3.20;2.90;;;30.30;31.90;;;;;;2219112;62;20922;-57
2023/08/18 04:26:39;0.00;0.00;0.62;0.00;0.00;0.62;4.50;3.37;;;30.30;31.90;;;;;;2220333;62;20410;-59
2023/08/18 04:29:23;0.00;0.00;0.62;0.00;0.00;0.62;2.77;2.50;;;30.30;31.90;;;;;;2220244;62;20896;-59
2023/08/18 04:32:08;0.00;0.00;0.62;0.00;0.00;0.62;3.23;2.90;;;30.30;31.90;;;;;;2219985;62;20374;-55
2023/08/18 04:34:52;0.00;0.00;0.62;0.00;0.00;0.62;3.57;3.13;;;30.30;31.90;;;;;;2219851;62;20439;-57
2023/08/18 04:37:37;0.00;0.00;0.62;0.00;0.00;0.62;3.10;2.63;;;30.30;31.90;;;;;;2219370;62;20373;-58
2023/08/18 04:40:23;0.00;0.00;0.62;0.00;0.00;0.62;2.97;2.67;;;30.30;31.90;;;;;;2220603;62;20369;-57
2023/08/18 04:43:11;0.00;0.00;0.62;0.00;0.00;0.62;2.80;2.43;;;30.30;31.90;;;;;;2219652;62;20430;-58
2023/08/18 04:45:56;0.00;0.00;0.62;0.00;0.00;0.62;2.80;2.60;;;30.30;31.90;;;;;;2219319;62;21220;-59
2023/08/18 04:48:41;0.00;0.00;0.62;0.00;0.00;0.62;3.57;2.37;;;30.30;31.90;;;;;;2220376;62;20369;-59
2023/08/18 04:51:26;0.00;0.00;0.62;0.00;0.00;0.62;2.53;2.30;;;30.30;31.90;;;;;;2219921;62;20779;-58
2023/08/18 04:54:11;0.00;0.00;0.62;0.00;0.00;0.62;3.43;2.87;;;30.30;31.90;;;;;;2219159;62;20894;-58
2023/08/18 04:56:59;0.00;0.00;0.62;0.00;0.00;0.62;2.50;2.17;;;30.30;31.90;;;;;;2220008;62;21030;-60
2023/08/18 04:59:45;0.00;0.00;0.62;0.00;0.00;0.62;2.70;2.07;;;30.30;32.00;;;;;;2219358;62;20374;-55
2023/08/18 05:02:30;0.00;0.00;0.62;0.00;0.00;0.62;3.00;2.70;;;30.30;31.90;;;;;;2220186;62;20386;-55
2023/08/18 05:05:18;0.00;0.00;0.62;0.00;0.00;0.62;3.07;2.77;;;30.30;31.90;;;;;;2220123;62;20976;-56
2023/08/18 05:08:03;0.00;0.00;0.62;0.00;0.00;0.62;3.00;2.67;;;30.30;31.90;;;;;;2219628;62;20895;-56
2023/08/18 05:10:48;0.00;0.00;0.62;0.00;0.00;0.62;3.23;2.93;;;30.30;32.00;;;;;;2220148;62;20374;-60
2023/08/18 05:13:32;0.00;0.00;0.62;0.00;0.00;0.62;3.40;3.10;;;30.30;31.90;;;;;;2220083;62;20374;-57
2023/08/18 05:16:18;0.00;0.00;0.62;0.00;0.00;0.62;3.30;3.00;;;30.30;32.60;;;;;;2219808;62;20374;-60
2023/08/18 05:19:04;0.00;0.00;0.62;0.00;0.00;0.62;3.13;2.67;;;30.30;32.00;;;;;;2220497;62;20406;-55
2023/08/18 05:21:49;0.00;0.00;0.62;0.00;0.00;0.62;3.80;3.43;;;30.30;31.90;;;;;;2219523;62;20466;-57
2023/08/18 05:24:33;0.00;0.00;0.62;0.00;0.00;0.62;3.40;3.10;;;30.30;32.00;;;;;;2220195;62;20392;-58
2023/08/18 05:27:18;0.00;0.00;0.62;0.00;0.00;0.62;3.67;3.37;;;30.30;32.00;;;;;;2220390;62;20382;-59
2023/08/18 05:30:04;0.00;0.00;0.62;0.00;0.00;0.62;4.00;3.60;;;30.30;32.00;;;;;;2219698;62;20415;-57
2023/08/18 05:32:50;0.00;0.00;0.62;0.00;0.00;0.62;3.90;3.50;;;30.30;32.00;;;;;;2220589;62;20386;-53
2023/08/18 05:35:35;0.00;0.00;0.62;0.00;0.00;0.62;4.00;3.67;;;30.30;32.00;;;;;;2220421;62;20802;-55
2023/08/18 05:38:19;0.00;0.00;0.62;0.00;0.00;0.62;3.87;3.50;;;30.30;32.00;;;;;;2219876;62;20377;-54
2023/08/18 05:41:08;0.00;0.00;0.62;0.00;0.00;0.62;3.83;3.53;;;30.30;32.00;;;;;;2220098;62;20466;-55
2023/08/18 05:43:53;0.00;0.00;0.62;0.00;0.00;0.62;3.73;3.40;;;30.30;32.00;;;;;;2219492;62;20401;-60
2023/08/18 05:46:37;0.00;0.00;0.62;0.00;0.00;0.62;4.10;3.70;;;30.30;32.00;;;;;;2220279;62;20366;-57
2023/08/18 05:49:23;0.00;0.00;0.62;0.00;0.00;0.62;3.80;3.50;;;30.30;32.00;;;;;;2219910;62;20874;-57
2023/08/18 05:52:07;0.00;0.00;0.62;0.00;0.00;0.62;4.30;3.97;;;30.30;32.00;;;;;;2219592;62;20378;-59
2023/08/18 05:54:52;0.00;0.00;0.62;0.00;0.00;0.62;4.30;3.90;;;30.30;32.00;;;;;;2220231;62;20918;-55
2023/08/18 05:57:41;0.00;0.00;0.62;0.00;0.00;0.62;4.27;3.87;;;30.30;32.00;;;;;;2221298;62;20947;-55
2023/08/18 06:00:26;0.00;0.00;0.62;0.00;0.00;0.62;4.00;3.70;;;30.30;32.00;;;;;;2220420;62;20443;-56
2023/08/18 06:03:10;0.00;0.00;0.62;0.00;0.00;0.62;4.27;3.83;;;30.30;32.00;;;;;;2220554;62;20813;-59
2023/08/18 06:06:00;0.00;0.00;0.62;0.00;0.00;0.62;4.20;3.80;;;30.30;32.00;;;;;;2220933;62;20377;-57
2023/08/18 06:08:45;0.00;0.00;0.62;0.00;0.00;0.62;4.17;3.77;;;30.30;32.00;;;;;;2221102;62;20386;-58
2023/08/18 06:11:29;0.00;0.00;0.62;0.00;0.00;0.62;3.97;3.67;;;30.30;32.00;;;;;;2220988;62;20814;-55
2023/08/18 06:14:14;0.00;0.00;0.62;0.00;0.00;0.62;4.20;3.90;;;30.30;32.00;;;;;;2219964;62;20393;-56
2023/08/18 06:16:58;0.00;0.00;0.62;0.00;0.00;0.62;3.93;3.53;;;30.30;32.00;;;;;;2221166;62;20399;-55
2023/08/18 06:19:43;0.00;0.00;0.62;0.00;0.00;0.62;5.10;4.00;;;30.30;32.00;;;;;;2221184;62;20365;-59
2023/08/18 06:22:29;0.00;0.00;0.62;0.00;0.00;0.62;4.00;3.60;;;30.30;32.00;;;;;;2220078;62;20393;-55
2023/08/18 06:25:14;0.00;0.00;0.62;0.00;0.00;0.62;5.17;3.63;;;30.30;32.00;;;;;;2220855;62;20393;-54
2023/08/18 06:27:59;0.00;0.00;0.62;0.00;0.00;0.62;3.97;3.67;;;30.30;32.00;;;;;;2220522;62;20405;-61
2023/08/18 06:30:44;0.00;0.00;0.62;0.00;0.00;0.62;4.83;3.23;;;30.30;32.00;;;;;;2220715;62;20519;-58
2023/08/18 06:33:28;0.00;0.00;0.62;0.00;0.00;0.62;3.90;3.60;;;30.30;32.10;;;;;;2220371;62;20362;-56
2023/08/18 06:36:13;0.00;0.00;0.62;0.00;0.00;0.62;4.00;3.60;;;30.30;32.00;;;;;;2219882;62;20390;-55
2023/08/18 06:38:59;0.00;0.00;0.62;0.00;0.00;0.62;4.40;3.73;;;30.30;32.10;;;;;;2220883;62;20454;-52
2023/08/18 06:41:43;0.00;0.00;0.62;0.00;0.00;0.62;3.70;3.40;;;30.30;32.10;;;;;;2221250;62;20799;-58
2023/08/18 06:44:33;0.00;0.00;0.62;0.00;0.00;0.62;4.47;4.07;;;30.30;32.10;;;;;;2219440;62;20443;-56
2023/08/18 06:47:18;0.00;0.00;0.62;0.00;0.00;0.62;3.87;3.57;;;30.30;32.10;;;;;;2221012;62;20439;-55
2023/08/18 06:50:06;0.00;0.00;0.62;0.00;0.00;0.62;3.93;3.63;;;30.30;32.10;;;;;;2220918;62;20377;-57
2023/08/18 06:52:51;0.00;0.00;0.62;0.00;0.00;0.62;4.30;3.90;;;30.30;32.10;;;;;;2220427;62;20696;-52
2023/08/18 06:55:37;0.00;0.00;0.62;0.00;0.00;0.62;4.00;3.70;;;30.30;32.10;;;;;;2221006;62;20396;-60
2023/08/18 06:58:22;0.00;0.00;0.62;0.00;0.00;0.62;3.63;3.30;;;30.30;32.10;;;;;;2220174;62;20389;-59
2023/08/18 07:01:06;0.00;0.00;0.62;0.00;0.00;0.62;3.93;3.63;;;30.30;32.20;;;;;;2220706;62;20463;-59
2023/08/18 07:03:52;0.00;0.00;0.62;0.00;0.00;0.62;4.00;3.60;;;30.30;32.10;;;;;;2220538;62;20417;-56
2023/08/18 07:06:37;0.00;0.00;0.62;0.00;0.00;0.62;3.53;3.23;;;30.30;32.10;;;;;;2220247;62;20424;-60
2023/08/18 07:09:21;0.00;0.00;0.62;0.00;0.00;0.62;3.30;3.00;;;30.40;32.20;;;;;;2220915;62;20480;-56
2023/08/18 07:12:09;0.00;0.00;0.62;0.00;0.00;0.62;3.20;2.90;;;30.30;32.10;;;;;;2221025;62;20374;-56
2023/08/18 07:14:54;0.00;0.00;0.62;0.00;0.00;0.62;3.83;3.53;;;30.30;32.20;;;;;;2220193;62;20442;-58
2023/08/18 07:17:38;0.00;0.00;0.62;0.00;0.00;0.62;3.77;3.43;;;30.30;32.10;;;;;;2221068;62;20421;-58
2023/08/18 07:20:23;0.00;0.00;0.62;0.00;0.00;0.62;3.57;3.27;;;30.30;32.10;;;;;;2220044;62;20367;-57
2023/08/18 07:23:08;0.00;0.00;0.62;0.00;0.00;0.62;3.90;3.30;;;30.30;32.20;;;;;;2220525;62;20993;-59
2023/08/18 07:25:53;0.00;0.00;0.62;0.00;0.00;0.62;3.97;3.47;;;30.30;32.10;;;;;;2220892;62;20374;-54
2023/08/18 07:28:39;0.00;0.00;0.62;0.00;0.00;0.62;3.73;3.30;;;30.30;32.20;;;;;;2219955;62;20458;-57
2023/08/18 07:31:23;0.00;0.00;0.62;0.00;0.00;0.62;4.13;3.73;;;30.30;32.20;;;;;;2220505;62;20369;-61
2023/08/18 07:34:08;0.00;0.00;0.62;0.00;0.00;0.62;3.67;3.37;;;30.30;32.20;;;;;;2220393;62;20956;-61
2023/08/18 07:36:52;0.00;0.00;0.62;0.00;0.00;0.62;3.60;3.30;;;30.30;32.20;;;;;;2219993;62;20982;-60
2023/08/18 07:39:37;0.00;0.00;0.62;0.00;0.00;0.62;3.90;3.60;;;30.30;32.20;;;;;;2220793;62;20931;-60
2023/08/18 07:42:22;0.00;0.00;0.62;0.00;0.00;0.62;3.57;3.27;;;30.40;32.30;;;;;;2219899;62;20417;-59
2023/08/18 07:45:08;0.00;0.00;0.62;0.00;0.00;0.62;3.57;3.27;;;30.40;32.30;;;;;;2220631;62;20458;-58
2023/08/18 07:47:53;0.00;0.00;0.62;0.00;0.00;0.62;3.33;2.63;;;30.40;33.00;;;;;;2220621;62;20393;-59
2023/08/18 07:50:40;0.00;0.00;0.62;0.00;0.00;0.62;3.20;2.90;;;30.40;32.30;;;;;;2220045;62;20406;-61
2023/08/18 07:53:26;0.00;0.00;0.62;0.00;0.00;0.62;3.70;3.40;;;30.40;32.30;;;;;;2220353;62;20370;-58
2023/08/18 07:56:11;0.00;0.00;0.62;0.00;0.00;0.62;4.20;3.80;;;30.40;32.30;;;;;;2220796;62;20415;-57
2023/08/18 07:58:56;0.00;0.00;0.62;0.00;0.00;0.62;3.37;3.07;;;30.40;32.30;;;;;;2220056;62;20378;-57
2023/08/18 08:01:42;0.00;0.00;0.62;0.00;0.00;0.62;3.20;2.90;;;30.40;32.30;;;;;;2220810;62;20389;-60
2023/08/18 08:04:27;0.00;0.00;0.62;0.00;0.00;0.62;3.33;3.10;;;30.40;32.30;;;;;;2219794;62;20402;-65
2023/08/18 08:07:12;0.00;0.00;0.62;0.00;0.00;0.62;2.93;2.73;;;30.40;32.30;;;;;;2220889;62;20830;-59
2023/08/18 08:09:59;0.00;0.00;0.62;0.00;0.00;0.62;3.40;3.10;;;30.40;32.30;;;;;;2220614;62;20462;-61
2023/08/18 08:12:45;0.00;0.00;0.62;0.00;0.00;0.62;3.27;2.97;;;30.40;32.30;;;;;;2219995;62;20835;-58
2023/08/18 08:15:30;0.00;0.00;0.62;0.00;0.00;0.62;2.90;2.70;;;30.40;32.30;;;;;;2220405;62;20934;-60
2023/08/18 08:18:18;0.00;0.00;0.62;0.00;0.00;0.62;3.53;3.23;;;30.40;32.30;;;;;;2220572;62;20374;-61
2023/08/18 08:21:03;0.00;0.00;0.62;0.00;0.00;0.62;3.23;2.93;;;30.40;32.30;;;;;;2219990;62;20410;-56
2023/08/18 08:23:48;0.00;0.00;0.62;0.00;0.00;0.62;3.37;2.90;;;30.40;32.30;;;;;;2220363;62;20425;-60
2023/08/18 08:26:33;0.00;0.00;0.62;0.00;0.00;0.62;3.60;3.30;;;30.40;32.30;;;;;;2220359;62;20779;-58
2023/08/18 08:29:18;0.00;0.00;0.62;0.00;0.00;0.62;3.13;2.83;;;30.40;32.30;;;;;;2220849;62;20371;-60
2023/08/18 08:32:03;0.00;0.00;0.62;0.00;0.00;0.62;3.50;3.20;;;30.50;32.40;;;;;;2220700;62;21056;-58
2023/08/18 08:34:50;0.00;0.00;0.62;0.00;0.00;0.62;3.10;2.90;;;30.50;32.40;;;;;;2219779;62;20442;-59
2023/08/18 08:37:34;0.00;0.00;0.62;0.00;0.00;0.62;2.93;2.50;;;30.50;32.40;;;;;;2220556;62;20916;-59
2023/08/18 08:40:20;0.00;0.00;0.62;0.00;0.00;0.62;3.50;3.20;;;30.40;32.30;;;;;;2220934;62;20393;-60
2023/08/18 08:43:05;0.00;0.00;0.62;0.00;0.00;0.62;2.90;2.70;;;30.50;32.40;;;;;;2219656;62;20405;-59
2023/08/18 08:45:50;0.00;0.00;0.62;0.00;0.00;0.62;2.97;2.67;;;30.50;32.40;;;;;;2220355;62;20857;-58
2023/08/18 08:48:44;0.00;0.00;0.62;0.00;0.00;0.62;3.10;2.80;;;30.50;32.40;;;;;;2220817;62;20783;-61
2023/08/18 08:51:35;0.00;0.00;0.62;0.00;0.00;0.62;3.30;2.97;;;30.50;32.40;;;;;;2220531;62;20392;-62
2023/08/18 08:54:23;0.00;0.00;0.62;0.00;0.00;0.62;4.10;3.70;;;30.50;32.50;;;;;;2220161;62;20407;-62
2023/08/18 08:57:09;0.00;0.00;0.62;0.00;0.00;0.62;3.30;3.00;;;30.50;32.40;;;;;;2219663;62;20409;-60
2023/08/18 08:59:55;0.00;0.00;0.62;0.00;0.00;0.62;3.87;3.50;;;30.50;32.40;;;;;;2220754;62;21013;-57
2023/08/18 09:02:43;0.00;0.00;0.62;0.00;0.00;0.62;3.80;3.50;;;30.50;32.40;;;;;;2217298;62;20421;-59
2023/08/18 09:05:30;0.00;0.00;0.62;0.00;0.00;0.62;3.40;3.07;;;30.50;32.50;;;;;;2219657;62;20435;-60
2023/08/18 09:08:17;0.00;0.00;0.62;0.00;0.00;0.62;3.70;3.40;;;30.50;32.50;;;;;;2220542;62;20588;-60
2023/08/18 09:11:01;0.00;0.00;0.62;0.00;0.00;0.62;3.93;3.00;;;30.50;32.50;;;;;;2219912;62;21065;-61
2023/08/18 09:13:47;0.00;0.00;0.62;0.00;0.00;0.62;3.90;3.60;;;30.60;32.60;;;;;;2220080;62;20393;-59
2023/08/18 09:16:31;0.00;0.00;0.62;0.00;0.00;0.62;4.30;3.90;;;30.60;32.60;;;;;;2219971;62;20907;-60
2023/08/18 09:19:16;0.00;0.00;0.62;0.00;0.00;0.62;3.80;3.40;;;30.60;32.60;;;;;;2219677;62;20431;-58
2023/08/18 09:22:04;0.00;0.00;0.62;0.00;0.00;0.62;4.43;3.90;;;30.60;32.60;;;;;;2220462;62;20398;-60
2023/08/18 09:24:53;0.00;0.00;0.62;0.00;0.00;0.62;3.53;3.23;;;30.60;32.60;;;;;;2220176;62;20426;-60
2023/08/18 09:27:38;0.00;0.00;0.62;0.00;0.00;0.62;4.40;4.00;;;30.60;32.60;;;;;;2219423;62;20382;-61
2023/08/18 09:30:24;0.00;0.00;0.62;0.00;0.00;0.62;3.90;3.60;;;30.60;32.70;;;;;;2220416;62;20927;-58
2023/08/18 09:33:08;0.00;0.00;0.62;0.00;0.00;0.62;3.47;3.17;;;30.60;32.70;;;;;;2219557;62;20373;-59
2023/08/18 09:35:58;0.00;0.00;0.62;0.00;0.00;0.62;3.33;3.03;;;30.60;32.70;;;;;;2220377;62;20771;-59
2023/08/18 09:38:43;0.00;0.00;0.62;0.00;0.00;0.62;3.83;3.43;;;30.60;32.70;;;;;;2220582;62;20462;-54
2023/08/18 09:41:31;0.00;0.00;0.62;0.00;0.00;0.62;4.40;4.00;;;30.70;32.70;;;;;;2219470;62;20459;-59
2023/08/18 09:44:16;0.00;0.00;0.62;0.00;0.00;0.62;4.13;3.80;;;30.70;32.80;;;;;;2220171;62;20987;-60
2023/08/18 09:47:05;0.00;0.00;0.62;0.00;0.00;0.62;4.53;4.20;;;30.70;32.80;;;;;;2219933;62;20369;-57
2023/08/18 09:49:51;0.00;0.00;0.62;0.00;0.00;0.62;4.40;4.10;;;30.70;32.80;;;;;;2219751;62;20480;-58
2023/08/18 09:52:38;0.00;0.00;0.62;0.00;0.00;0.62;4.10;3.80;;;30.70;32.90;;;;;;2220343;62;20366;-58
2023/08/18 09:55:28;0.00;0.00;0.62;0.00;0.00;0.62;3.53;3.23;;;30.70;32.90;;;;;;2219066;62;20526;-60
2023/08/18 09:58:25;0.00;0.00;0.62;0.00;0.00;0.62;4.60;4.20;;;30.70;32.90;;;;;;2220449;62;20431;-60
2023/08/18 10:01:12;0.00;0.00;0.62;0.00;0.00;0.62;4.53;4.13;;;30.70;32.90;;;;;;2220192;62;20903;-59
2023/08/18 10:03:59;0.00;0.00;0.62;0.00;0.00;0.62;7.00;4.40;;;30.70;32.90;;;;;;2219201;62;20390;-59
2023/08/18 10:06:45;0.00;0.00;0.62;0.00;0.00;0.62;4.60;4.20;;;30.70;33.00;;;;;;2220463;62;20990;-60
2023/08/18 10:09:33;0.00;0.00;0.62;0.00;0.00;0.62;3.87;3.57;;;30.80;33.00;;;;;;2220342;62;20377;-60
2023/08/18 10:12:17;0.00;0.00;0.62;0.00;0.00;0.62;4.80;4.40;;;30.80;33.00;;;;;;2219799;62;20374;-57
2023/08/18 10:15:05;0.00;0.00;0.62;0.00;0.00;0.62;4.60;4.20;;;30.80;33.00;;;;;;2220165;62;20394;-58
2023/08/18 10:17:50;0.00;0.00;0.62;0.00;0.00;0.62;4.00;3.70;;;30.80;33.00;;;;;;2219638;62;20407;-60
2023/08/18 10:20:35;0.00;0.00;0.62;0.00;0.00;0.62;4.07;3.77;;;30.80;33.00;;;;;;2220576;62;20458;-61
2023/08/18 10:23:23;0.00;0.00;0.62;0.00;0.00;0.62;4.40;4.00;;;30.80;33.00;;;;;;2219811;62;20926;-59
2023/08/18 10:26:08;0.00;0.00;0.62;0.00;0.00;0.62;4.60;4.23;;;30.80;33.20;;;;;;2219774;62;20373;-59
2023/08/18 10:28:53;0.00;0.00;0.62;0.00;0.00;0.62;4.90;4.50;;;30.80;33.00;;;;;;2220493;62;20768;-62
2023/08/18 10:31:46;0.00;0.00;0.62;0.00;0.00;0.62;4.00;3.70;;;30.80;33.00;;;;;;2220225;62;20432;-61
2023/08/18 10:34:31;0.00;0.00;0.62;0.00;0.00;0.62;4.67;4.27;;;30.90;33.00;;;;;;2219311;62;20409;-59
2023/08/18 10:37:15;0.00;0.00;0.62;0.00;0.00;0.62;4.83;4.43;;;30.90;33.00;;;;;;2220210;62;20471;-60
2023/08/18 10:40:07;0.00;0.00;0.62;0.00;0.00;0.62;5.10;4.70;;;30.90;33.10;;;;;;2219683;62;20399;-62
2023/08/18 10:42:53;0.00;0.00;0.62;0.00;0.00;0.62;4.80;4.40;;;30.90;33.10;;;;;;2220730;62;20397;-60
2023/08/18 10:45:40;0.00;0.00;0.62;0.00;0.00;0.62;4.50;4.10;;;30.90;33.00;;;;;;2220927;62;20417;-61
2023/08/18 10:48:31;0.00;0.00;0.62;0.00;0.00;0.62;4.80;4.40;;;31.00;33.10;;;;;;2220499;62;20366;-61
2023/08/18 10:51:16;0.00;0.00;0.62;0.00;0.00;0.62;4.77;4.37;;;31.00;33.10;;;;;;2220829;62;20408;-63
2023/08/18 10:54:00;0.00;0.00;0.62;0.00;0.00;0.62;5.57;5.13;;;30.90;33.10;;;;;;2220715;62;20393;-59